Huvudsida
METAR-TAF:

METAR-TAF

Flygplatser :

Jazīreh-ye Lāvān, Iran

latitud: 26-48-37N, longitud: 53-21-22E, höjd: 23 m

Aktuellt väderrapport

Denna rapport gjordes för 1 timme och 11 minuter sedan, klockan 15:00 UTC
Stilla vind
Temperatur 22°C
Fuktighet 69%
Tryck 1017 hPa
Sikt: 4000 m
torrdis

METAR: OIBV 171500Z 00000KT 4000 HZ NSC 22/16 Q1017

Tid: 19:41 (16:11 UTC)


TAF: saknas

Aktuella väderrapporter och prognoser från 4000 flygplatser (METAR- och TAF-rapporter).

De tillgängliga stationerna syns som gula och röda prickar på kartan.

För musen över prickarna för att se namnen på stationerna.

Klicka sedan för att få väderrapporter och prognoser.

För att ändra kartan: Klicka på de gröna knapparna med ett svart kors på för att zooma in; den gröna knappen med ett streck på för att zooma ut; eller på de gröna pilarna för angränsande kartor.


METAR-TAF: